createdAt,value
2023-02-05T00:02:21.956Z,79.56
2023-02-05T00:04:49.186Z,80.30
2023-02-05T00:07:18.418Z,80.30
2023-02-05T00:09:45.536Z,80.73
2023-02-05T00:12:15.176Z,80.87
2023-02-05T00:14:42.142Z,80.91
2023-02-05T00:17:09.238Z,80.33
2023-02-05T00:19:38.854Z,79.50
2023-02-05T00:22:05.920Z,79.00
2023-02-05T00:24:38.818Z,78.56
2023-02-05T00:27:07.289Z,78.47
2023-02-05T00:29:34.764Z,78.47
2023-02-05T00:32:01.814Z,78.60
2023-02-05T00:34:31.200Z,78.69
2023-02-05T00:36:58.203Z,79.52
2023-02-05T00:39:25.229Z,79.00
2023-02-05T00:41:52.579Z,79.51
2023-02-05T00:44:22.503Z,79.19
2023-02-05T00:46:49.381Z,79.71
2023-02-05T00:49:16.412Z,79.06
2023-02-05T00:51:43.549Z,78.55
2023-02-05T00:54:10.632Z,77.82
2023-02-05T00:56:39.775Z,77.69
2023-02-05T00:59:06.703Z,77.67
2023-02-05T01:01:33.774Z,77.56
2023-02-05T01:04:03.025Z,78.86
2023-02-05T01:06:29.953Z,79.43
2023-02-05T01:08:56.894Z,79.41
2023-02-05T01:11:23.803Z,80.20
2023-02-05T01:13:50.841Z,79.64
2023-02-05T01:16:17.874Z,79.02
2023-02-05T01:18:44.876Z,79.08
2023-02-05T01:21:11.886Z,78.84
2023-02-05T01:23:41.182Z,79.61
2023-02-05T01:26:08.281Z,79.21
2023-02-05T01:28:35.442Z,79.34
2023-02-05T01:31:05.216Z,80.06
2023-02-05T01:33:32.271Z,79.93
2023-02-05T01:35:59.218Z,79.99
2023-02-05T01:38:36.798Z,79.95
2023-02-05T01:41:04.178Z,79.55
2023-02-05T01:43:31.062Z,79.92
2023-02-05T01:45:57.876Z,80.39
2023-02-05T01:48:31.291Z,80.69
2023-02-05T01:51:04.879Z,80.03
2023-02-05T01:53:38.523Z,79.17
2023-02-05T01:56:13.473Z,79.35
2023-02-05T01:58:50.523Z,79.79
2023-02-05T02:01:17.589Z,78.67
2023-02-05T02:03:45.825Z,79.46
2023-02-05T02:06:12.898Z,80.24
2023-02-05T02:08:44.492Z,79.30
2023-02-05T02:11:17.258Z,79.36
2023-02-05T02:13:46.235Z,78.80
2023-02-05T02:16:16.589Z,80.15
2023-02-05T02:18:46.568Z,79.61
2023-02-05T02:21:39.721Z,79.58
2023-02-05T02:24:33.602Z,78.48
2023-02-05T02:27:28.180Z,80.13
2023-02-05T02:30:17.853Z,79.75
2023-02-05T02:33:10.126Z,78.90
2023-02-05T02:36:01.904Z,80.05
2023-02-05T02:38:38.892Z,79.89
2023-02-05T02:41:37.593Z,80.24
2023-02-05T02:44:40.877Z,80.35
2023-02-05T02:47:19.147Z,79.86
2023-02-05T02:49:50.868Z,79.79
2023-02-05T02:52:24.514Z,79.36
2023-02-05T02:54:58.102Z,78.96
2023-02-05T02:57:29.408Z,78.31
2023-02-05T03:00:06.334Z,78.47
2023-02-05T03:02:37.709Z,78.43
2023-02-05T03:05:18.815Z,79.76
2023-02-05T03:07:55.806Z,80.34
2023-02-05T03:10:33.073Z,80.36
2023-02-05T03:13:04.841Z,80.29
2023-02-05T03:15:37.577Z,80.06
2023-02-05T03:18:07.222Z,80.75
2023-02-05T03:20:43.400Z,80.37
2023-02-05T03:23:10.452Z,80.72
2023-02-05T03:25:37.464Z,80.92
2023-02-05T03:28:05.604Z,81.84
2023-02-05T03:31:09.885Z,80.75
2023-02-05T03:34:26.298Z,78.95
2023-02-05T03:37:20.786Z,78.21
2023-02-05T03:40:12.340Z,77.89
2023-02-05T03:43:12.585Z,77.88
2023-02-05T03:46:17.635Z,77.75
2023-02-05T03:49:52.671Z,76.00
2023-02-05T03:52:29.789Z,75.77
2023-02-05T03:55:05.358Z,75.84
2023-02-05T03:57:44.992Z,76.26
2023-02-05T04:00:15.474Z,76.53
2023-02-05T04:02:43.573Z,75.95
2023-02-05T04:05:12.771Z,75.60
2023-02-05T04:07:39.939Z,75.30
2023-02-05T04:10:07.537Z,76.79
2023-02-05T04:12:34.721Z,77.51
2023-02-05T04:15:01.780Z,76.60
2023-02-05T04:17:33.741Z,77.93
2023-02-05T04:20:06.726Z,77.69
2023-02-05T04:22:34.085Z,77.53
2023-02-05T04:25:03.334Z,78.31
2023-02-05T04:27:30.219Z,79.34
2023-02-05T04:29:59.642Z,79.14
2023-02-05T04:32:32.113Z,78.40
2023-02-05T04:34:59.088Z,78.19
2023-02-05T04:37:26.137Z,77.83
2023-02-05T04:39:53.155Z,77.85
2023-02-05T04:42:20.139Z,78.60
2023-02-05T04:44:47.212Z,78.71
2023-02-05T04:47:14.478Z,78.23
2023-02-05T04:49:44.340Z,78.87
2023-02-05T04:52:11.306Z,79.18
2023-02-05T04:54:40.886Z,79.33
2023-02-05T04:57:07.836Z,79.70
2023-02-05T04:59:34.795Z,79.35
2023-02-05T05:02:01.764Z,78.98
2023-02-05T05:04:28.862Z,78.82
2023-02-05T05:06:58.683Z,79.03
2023-02-05T05:09:25.717Z,78.65
2023-02-05T05:11:56.381Z,79.34
2023-02-05T05:14:25.682Z,78.35
2023-02-05T05:16:52.519Z,79.82
2023-02-05T05:19:19.467Z,78.53
2023-02-05T05:21:50.966Z,78.25
2023-02-05T05:24:17.979Z,77.01
2023-02-05T05:26:45.126Z,77.11
2023-02-05T05:29:13.239Z,77.37
2023-02-05T05:31:44.091Z,76.52
2023-02-05T05:34:14.148Z,77.16
2023-02-05T05:36:43.593Z,78.60
2023-02-05T05:39:34.031Z,78.59
2023-02-05T05:42:19.571Z,78.69
2023-02-05T05:44:51.944Z,77.64
2023-02-05T05:47:19.776Z,78.65
2023-02-05T05:49:47.238Z,78.24
2023-02-05T05:52:17.261Z,78.28
2023-02-05T05:54:44.321Z,77.71
2023-02-05T05:57:11.226Z,78.16
2023-02-05T05:59:40.326Z,78.05
2023-02-05T06:02:09.603Z,79.04
2023-02-05T06:04:38.739Z,78.57
2023-02-05T06:07:05.928Z,78.09
2023-02-05T06:09:32.885Z,78.96
2023-02-05T06:12:01.943Z,78.95
2023-02-05T06:14:28.861Z,78.43
2023-02-05T06:16:57.852Z,78.81
2023-02-05T06:19:24.724Z,78.52
2023-02-05T06:21:51.713Z,79.07
2023-02-05T06:24:21.110Z,79.44
2023-02-05T06:26:48.078Z,79.15
2023-02-05T06:29:17.156Z,78.63
2023-02-05T06:31:46.583Z,79.19
2023-02-05T06:34:16.140Z,79.98
2023-02-05T06:36:43.150Z,79.04
2023-02-05T06:39:10.070Z,78.76
2023-02-05T06:41:39.549Z,78.72
2023-02-05T06:44:09.279Z,78.73
2023-02-05T06:46:38.822Z,78.66
2023-02-05T06:49:05.828Z,78.38
2023-02-05T06:51:32.798Z,78.25
2023-02-05T06:54:02.914Z,78.86
2023-02-05T06:56:29.944Z,78.76
2023-02-05T06:58:59.975Z,78.24
2023-02-05T07:01:27.326Z,78.21
2023-02-05T07:03:56.270Z,77.92
2023-02-05T07:06:26.415Z,78.38
2023-02-05T07:08:53.925Z,78.05
2023-02-05T07:11:21.990Z,78.60
2023-02-05T07:13:49.024Z,77.92
2023-02-05T07:16:16.099Z,77.60
2023-02-05T07:18:43.068Z,77.48
2023-02-05T07:21:16.767Z,76.57
2023-02-05T07:23:43.736Z,76.60
2023-02-05T07:26:19.155Z,75.63
2023-02-05T07:28:48.647Z,77.12
2023-02-05T07:31:20.112Z,75.55
2023-02-05T07:33:49.667Z,74.31
2023-02-05T07:36:20.623Z,74.62
2023-02-05T07:38:47.755Z,76.08
2023-02-05T07:41:18.031Z,76.35
2023-02-05T07:43:45.046Z,76.30
2023-02-05T07:46:17.995Z,76.30
2023-02-05T07:48:47.374Z,76.24
2023-02-05T07:51:24.051Z,75.26
2023-02-05T07:53:51.990Z,75.09
2023-02-05T07:56:25.719Z,75.29
2023-02-05T07:58:55.351Z,75.35
2023-02-05T08:01:22.461Z,76.24
2023-02-05T08:03:52.121Z,76.23
2023-02-05T08:06:19.485Z,76.39
2023-02-05T08:08:46.466Z,75.38
2023-02-05T08:11:20.984Z,75.14
2023-02-05T08:13:48.062Z,75.67
2023-02-05T08:16:15.974Z,76.09
2023-02-05T08:18:47.139Z,75.69
2023-02-05T08:21:14.099Z,76.55
2023-02-05T08:23:43.529Z,76.90
2023-02-05T08:26:10.702Z,76.72
2023-02-05T08:28:37.599Z,75.08
2023-02-05T08:31:11.677Z,74.66
2023-02-05T08:33:38.586Z,74.91
2023-02-05T08:36:11.846Z,74.89
2023-02-05T08:38:38.859Z,73.80
2023-02-05T08:41:13.526Z,74.64
2023-02-05T08:43:46.729Z,74.68
2023-02-05T08:46:19.259Z,74.89
2023-02-05T08:48:51.858Z,74.02
2023-02-05T08:51:20.376Z,72.99
2023-02-05T08:53:47.544Z,72.64
2023-02-05T08:56:19.953Z,71.54
2023-02-05T08:58:49.418Z,71.71
2023-02-05T09:01:18.529Z,70.47
2023-02-05T09:03:46.383Z,70.36
2023-02-05T09:06:16.472Z,71.53
2023-02-05T09:08:46.865Z,71.38
2023-02-05T09:11:22.668Z,72.40
2023-02-05T09:13:49.956Z,72.21
2023-02-05T09:16:17.083Z,72.96
2023-02-05T09:18:46.186Z,72.54
2023-02-05T09:21:13.886Z,70.78
2023-02-05T09:23:41.229Z,69.85
2023-02-05T09:26:10.557Z,69.65
2023-02-05T09:28:44.893Z,70.03
2023-02-05T09:31:21.065Z,69.80
2023-02-05T09:33:52.838Z,69.93
2023-02-05T09:36:23.186Z,67.75
2023-02-05T09:39:04.913Z,67.39
2023-02-05T09:42:01.598Z,67.16
2023-02-05T09:45:10.080Z,66.07
2023-02-05T09:48:19.107Z,66.68
2023-02-05T09:50:46.377Z,66.36
2023-02-05T09:53:19.970Z,65.70
2023-02-05T09:55:48.544Z,64.37
2023-02-05T09:58:24.373Z,64.82
2023-02-05T10:01:14.321Z,63.53
2023-02-05T10:03:45.483Z,62.73
2023-02-05T10:07:11.213Z,64.40
2023-02-05T10:09:55.866Z,64.74
2023-02-05T10:12:53.222Z,65.67
2023-02-05T10:15:29.787Z,64.78
2023-02-05T10:18:12.878Z,65.29
2023-02-05T10:21:17.746Z,65.48
2023-02-05T10:24:16.605Z,64.98
2023-02-05T10:26:51.736Z,65.71
2023-02-05T10:29:36.777Z,65.01
2023-02-05T10:32:25.460Z,64.14
2023-02-05T10:35:20.490Z,64.10
2023-02-05T10:37:57.734Z,64.35
2023-02-05T10:40:35.215Z,63.46
2023-02-05T10:43:19.838Z,64.46
2023-02-05T10:45:50.452Z,63.17
2023-02-05T10:48:50.787Z,66.42
2023-02-05T10:51:35.773Z,64.59
2023-02-05T10:54:02.751Z,63.75
2023-02-05T10:56:29.790Z,63.17
2023-02-05T10:59:01.009Z,61.81
2023-02-05T11:01:38.192Z,59.99
2023-02-05T11:04:49.803Z,57.87
2023-02-05T11:07:32.757Z,54.90
2023-02-05T11:10:15.511Z,51.51
2023-02-05T11:12:50.816Z,52.16
2023-02-05T11:15:35.301Z,51.68
2023-02-05T11:18:06.906Z,50.27
2023-02-05T11:20:42.522Z,48.28
2023-02-05T11:23:22.907Z,51.01
2023-02-05T11:25:55.474Z,50.13
2023-02-05T11:28:30.046Z,49.25
2023-02-05T11:31:33.265Z,51.26
2023-02-05T11:34:09.428Z,53.03
2023-02-05T11:36:39.227Z,53.74
2023-02-05T11:39:07.684Z,54.40
2023-02-05T11:41:54.062Z,56.81
2023-02-05T11:44:31.993Z,57.49
2023-02-05T11:47:03.594Z,57.24
2023-02-05T11:49:40.959Z,56.50
2023-02-05T11:52:15.053Z,55.23
2023-02-05T11:54:49.115Z,55.21
2023-02-05T11:57:22.160Z,54.03
2023-02-05T11:59:59.667Z,56.43
2023-02-05T12:02:28.664Z,57.63
2023-02-05T12:05:13.636Z,58.00
2023-02-05T12:08:07.029Z,57.48
2023-02-05T12:11:19.646Z,57.04
2023-02-05T12:14:02.568Z,58.17
2023-02-05T12:16:48.275Z,58.63
2023-02-05T12:19:52.098Z,57.47
2023-02-05T12:22:31.015Z,59.39
2023-02-05T12:25:18.243Z,59.58
2023-02-05T12:28:08.652Z,58.35
2023-02-05T12:31:08.035Z,59.20
2023-02-05T12:34:21.608Z,57.47
2023-02-05T12:37:16.519Z,55.38
2023-02-05T12:39:50.489Z,55.78
2023-02-05T12:42:31.970Z,54.27
2023-02-05T12:45:30.939Z,46.46
2023-02-05T12:48:40.125Z,43.31
2023-02-05T12:51:39.155Z,41.08
2023-02-05T12:55:02.734Z,37.79
2023-02-05T12:57:47.119Z,37.57
2023-02-05T13:00:20.449Z,36.74
2023-02-05T13:03:11.311Z,36.44
2023-02-05T13:05:47.083Z,34.73
2023-02-05T13:08:48.218Z,32.06
2023-02-05T13:11:43.285Z,32.53
2023-02-05T13:14:42.629Z,35.76
2023-02-05T13:17:25.070Z,39.35
2023-02-05T13:20:06.793Z,39.41
2023-02-05T13:23:22.277Z,42.80
2023-02-05T13:26:08.923Z,42.47
2023-02-05T13:29:00.588Z,42.65
2023-02-05T13:31:38.789Z,40.50
2023-02-05T13:34:12.908Z,37.80
2023-02-05T13:37:39.600Z,35.22
2023-02-05T13:40:39.213Z,35.26
2023-02-05T13:43:37.142Z,32.77
2023-02-05T13:46:34.735Z,30.00
2023-02-05T13:49:49.174Z,29.78
2023-02-05T13:52:45.783Z,30.93
2023-02-05T13:55:24.466Z,31.46
2023-02-05T13:58:22.248Z,33.07
2023-02-05T14:01:00.399Z,32.89
2023-02-05T14:03:35.045Z,34.48
2023-02-05T14:06:27.396Z,33.82
2023-02-05T14:09:08.301Z,33.54
2023-02-05T14:11:59.695Z,33.04
2023-02-05T14:14:44.795Z,31.07
2023-02-05T14:17:31.977Z,30.82
2023-02-05T14:20:01.307Z,31.21
2023-02-05T14:22:44.024Z,31.66
2023-02-05T14:25:38.793Z,30.81
2023-02-05T14:28:29.930Z,31.68
2023-02-05T14:31:05.672Z,33.97
2023-02-05T14:33:32.730Z,36.23
2023-02-05T14:36:22.766Z,37.78
2023-02-05T14:39:20.356Z,38.95
2023-02-05T14:41:55.969Z,41.68
2023-02-05T14:44:30.747Z,43.20
2023-02-05T14:47:19.462Z,45.79
2023-02-05T14:49:53.898Z,49.17
2023-02-05T14:52:36.750Z,50.92
2023-02-05T14:55:15.748Z,53.14
2023-02-05T14:57:51.852Z,53.55
2023-02-05T15:00:47.708Z,53.86
2023-02-05T15:03:17.898Z,53.29
2023-02-05T15:05:48.585Z,54.73
2023-02-05T15:08:36.630Z,55.02
2023-02-05T15:11:34.514Z,56.14
2023-02-05T15:14:20.319Z,55.85
2023-02-05T15:17:05.687Z,58.14
2023-02-05T15:19:40.326Z,59.42
2023-02-05T15:22:26.710Z,58.55
2023-02-05T15:24:54.809Z,57.75
2023-02-05T15:27:45.770Z,58.64
2023-02-05T15:30:20.637Z,58.73
2023-02-05T15:33:11.683Z,59.55
2023-02-05T15:35:44.598Z,60.00
2023-02-05T15:38:39.742Z,60.81
2023-02-05T15:41:08.006Z,61.23
2023-02-05T15:43:37.469Z,60.77
2023-02-05T15:46:08.305Z,61.63
2023-02-05T15:48:37.733Z,61.61
2023-02-05T15:51:22.697Z,60.16
2023-02-05T15:53:51.430Z,60.91
2023-02-05T15:56:23.139Z,62.00
2023-02-05T15:58:59.798Z,61.66
2023-02-05T16:01:39.104Z,61.23
2023-02-05T16:04:28.982Z,62.60
2023-02-05T16:06:56.320Z,59.84
2023-02-05T16:09:29.453Z,60.55
2023-02-05T16:12:14.000Z,60.27
2023-02-05T16:14:46.105Z,60.62
2023-02-05T16:17:22.068Z,61.84
2023-02-05T16:20:15.164Z,63.40
2023-02-05T16:22:52.771Z,63.12
2023-02-05T16:25:49.065Z,63.88
2023-02-05T16:28:36.714Z,63.32
2023-02-05T16:31:04.526Z,64.05
2023-02-05T16:33:48.666Z,64.12
2023-02-05T16:36:36.861Z,64.12
2023-02-05T16:39:10.906Z,63.48
2023-02-05T16:41:42.237Z,63.14
2023-02-05T16:44:28.637Z,63.17
2023-02-05T16:47:05.817Z,62.85
2023-02-05T16:49:35.456Z,63.16
2023-02-05T16:52:38.503Z,62.90
2023-02-05T16:55:25.258Z,63.08
2023-02-05T16:57:57.030Z,62.38
2023-02-05T17:00:30.474Z,62.78
2023-02-05T17:03:20.126Z,62.43
2023-02-05T17:06:01.559Z,62.96
2023-02-05T17:08:36.968Z,62.76
2023-02-05T17:11:12.247Z,61.75
2023-02-05T17:13:42.905Z,62.82
2023-02-05T17:16:24.378Z,62.76
2023-02-05T17:18:59.989Z,62.29
2023-02-05T17:21:35.948Z,62.29
2023-02-05T17:24:06.987Z,61.61
2023-02-05T17:26:38.462Z,61.92
2023-02-05T17:29:11.916Z,62.60
2023-02-05T17:31:39.725Z,62.19
2023-02-05T17:34:07.071Z,61.01
2023-02-05T17:36:33.961Z,62.06
2023-02-05T17:39:00.966Z,61.35
2023-02-05T17:41:54.239Z,61.42
2023-02-05T17:44:24.445Z,61.42
2023-02-05T17:46:54.098Z,61.48
2023-02-05T17:49:21.259Z,61.78
2023-02-05T17:51:50.602Z,62.65
2023-02-05T17:54:21.164Z,61.42
2023-02-05T17:56:50.119Z,62.48
2023-02-05T17:59:23.436Z,62.12
2023-02-05T18:01:51.269Z,61.43
2023-02-05T18:04:21.352Z,61.26
2023-02-05T18:06:49.959Z,61.14
2023-02-05T18:09:18.423Z,61.94
2023-02-05T18:11:45.692Z,61.72
2023-02-05T18:14:12.862Z,61.98
2023-02-05T18:16:40.553Z,62.21
2023-02-05T18:19:07.536Z,61.93
2023-02-05T18:21:37.042Z,61.38
2023-02-05T18:24:06.748Z,62.00
2023-02-05T18:26:33.828Z,61.11
2023-02-05T18:29:00.857Z,60.99
2023-02-05T18:31:28.031Z,61.76
2023-02-05T18:33:58.043Z,61.48
2023-02-05T18:36:28.173Z,61.68
2023-02-05T18:38:56.644Z,62.13
2023-02-05T18:41:25.972Z,62.40
2023-02-05T18:43:59.592Z,62.51
2023-02-05T18:46:27.093Z,62.58
2023-02-05T18:48:55.710Z,62.13
2023-02-05T18:51:24.175Z,61.92
2023-02-05T18:53:51.998Z,62.06
2023-02-05T18:56:25.256Z,62.32
2023-02-05T18:59:06.153Z,61.93
2023-02-05T19:01:40.008Z,61.05
2023-02-05T19:04:14.243Z,61.72
2023-02-05T19:06:43.876Z,62.09
2023-02-05T19:09:12.016Z,62.36
2023-02-05T19:11:41.427Z,61.31
2023-02-05T19:14:13.150Z,61.08
2023-02-05T19:16:41.013Z,60.98
2023-02-05T19:19:12.593Z,60.94
2023-02-05T19:21:42.184Z,60.50
2023-02-05T19:24:12.529Z,60.59
2023-02-05T19:26:44.094Z,62.37
2023-02-05T19:29:18.284Z,63.12
2023-02-05T19:31:47.590Z,63.45
2023-02-05T19:34:19.761Z,62.94
2023-02-05T19:36:47.871Z,63.82
2023-02-05T19:39:17.898Z,63.91
2023-02-05T19:41:45.904Z,63.91
2023-02-05T19:44:14.189Z,63.25
2023-02-05T19:46:47.169Z,63.66
2023-02-05T19:49:22.125Z,63.82
2023-02-05T19:51:55.182Z,64.43
2023-02-05T19:54:24.389Z,64.51
2023-02-05T19:56:55.060Z,65.39
2023-02-05T19:59:22.186Z,64.44
2023-02-05T20:01:55.322Z,64.37
2023-02-05T20:04:28.709Z,65.00
2023-02-05T20:07:01.118Z,64.94
2023-02-05T20:09:37.981Z,65.88
2023-02-05T20:12:12.982Z,65.92
2023-02-05T20:14:40.548Z,65.81
2023-02-05T20:17:09.175Z,66.50
2023-02-05T20:19:39.587Z,66.43
2023-02-05T20:22:08.593Z,66.09
2023-02-05T20:24:36.571Z,66.34
2023-02-05T20:27:03.896Z,66.33
2023-02-05T20:29:49.600Z,66.15
2023-02-05T20:32:16.714Z,66.31
2023-02-05T20:34:50.065Z,66.39
2023-02-05T20:37:22.961Z,67.03
2023-02-05T20:39:50.004Z,67.03
2023-02-05T20:42:17.401Z,66.75
2023-02-05T20:44:44.683Z,66.73
2023-02-05T20:47:14.428Z,66.79
2023-02-05T20:49:44.182Z,67.40
2023-02-05T20:52:11.759Z,67.30
2023-02-05T20:54:39.031Z,68.32
2023-02-05T20:57:05.987Z,68.54
2023-02-05T20:59:33.748Z,70.00
2023-02-05T21:02:03.967Z,69.73
2023-02-05T21:04:31.310Z,70.79
2023-02-05T21:06:58.496Z,70.80
2023-02-05T21:09:25.606Z,70.34
2023-02-05T21:11:55.478Z,71.54
2023-02-05T21:14:25.878Z,71.48
2023-02-05T21:16:53.238Z,72.86
2023-02-05T21:19:24.031Z,72.86
2023-02-05T21:21:51.662Z,73.38
2023-02-05T21:24:20.743Z,74.00
2023-02-05T21:26:53.129Z,74.04
2023-02-05T21:29:21.423Z,74.18
2023-02-05T21:31:55.901Z,73.85
2023-02-05T21:34:29.649Z,74.36
2023-02-05T21:36:59.355Z,75.33
2023-02-05T21:39:26.525Z,75.39
2023-02-05T21:41:54.740Z,75.89
2023-02-05T21:44:24.764Z,76.10
2023-02-05T21:46:53.785Z,77.24
2023-02-05T21:49:23.363Z,77.52
2023-02-05T21:51:53.268Z,78.15
2023-02-05T21:54:27.791Z,78.19
2023-02-05T21:56:54.902Z,78.11
2023-02-05T21:59:21.995Z,78.19
2023-02-05T22:01:49.244Z,77.84
2023-02-05T22:04:16.775Z,79.95
2023-02-05T22:06:44.801Z,79.39
2023-02-05T22:09:18.069Z,78.71
2023-02-05T22:11:47.374Z,79.45
2023-02-05T22:14:14.390Z,78.71
2023-02-05T22:16:41.478Z,79.34
2023-02-05T22:19:08.780Z,79.18
2023-02-05T22:21:41.637Z,79.43
2023-02-05T22:24:15.926Z,79.41
2023-02-05T22:26:46.850Z,79.94
2023-02-05T22:29:19.071Z,80.32
2023-02-05T22:31:50.274Z,80.35
2023-02-05T22:34:17.353Z,81.63
2023-02-05T22:36:44.680Z,82.81
2023-02-05T22:39:14.200Z,82.49
2023-02-05T22:41:43.330Z,81.62
2023-02-05T22:44:12.172Z,81.75
2023-02-05T22:46:44.030Z,82.31
2023-02-05T22:49:15.105Z,82.48
2023-02-05T22:51:45.397Z,81.67
2023-02-05T22:54:14.045Z,82.11
2023-02-05T22:56:43.728Z,82.32
2023-02-05T22:59:13.223Z,82.74
2023-02-05T23:01:40.377Z,82.33
2023-02-05T23:04:09.240Z,82.27
2023-02-05T23:06:42.492Z,82.60
2023-02-05T23:09:18.069Z,82.58
2023-02-05T23:11:48.135Z,83.20
2023-02-05T23:14:17.220Z,83.83
2023-02-05T23:16:46.966Z,83.78
2023-02-05T23:19:20.515Z,85.06
2023-02-05T23:21:51.086Z,84.73
2023-02-05T23:24:21.337Z,85.19
2023-02-05T23:26:51.103Z,84.83
2023-02-05T23:29:24.104Z,84.53
2023-02-05T23:31:51.048Z,85.38
2023-02-05T23:34:18.022Z,85.63
2023-02-05T23:36:45.079Z,86.10
2023-02-05T23:39:12.037Z,86.64
2023-02-05T23:41:39.948Z,86.94
2023-02-05T23:44:22.060Z,86.25
2023-02-05T23:46:50.538Z,87.52
2023-02-05T23:49:23.298Z,87.11
2023-02-05T23:51:54.062Z,86.49
2023-02-05T23:54:24.991Z,86.94
2023-02-05T23:56:55.811Z,87.08
2023-02-05T23:59:22.841Z,87.01
